Terminal Aerodrome Forecast
Issued by NWS Paducah, KY

Home | Current Version | Previous Version | Text Only | Print | Product List | Glossary On
Versions: 1 2 3 4 5 6 7 8 9 10 11 12 13 14
055
FTUS43 KPAH 210520
TAFEVV
TAF
KEVV 210520Z 2106/2206 36008KT P6SM SCT035 BKN250
      TEMPO 2108/2112 BKN035
     FM211200 02005KT P6SM BKN030
     FM211800 02007KT P6SM BKN040=

USA.gov is the U.S. government's official web portal to all federal, state and local government web resources and services.